createdAt,value
2022-08-07T00:02:37.482Z,57.87
2022-08-07T00:05:29.384Z,58.05
2022-08-07T00:08:32.324Z,58.25
2022-08-07T00:11:39.994Z,58.19
2022-08-07T00:14:57.527Z,58.15
2022-08-07T00:18:00.645Z,58.57
2022-08-07T00:21:08.161Z,58.44
2022-08-07T00:24:29.022Z,57.84
2022-08-07T00:27:52.712Z,57.78
2022-08-07T00:30:56.932Z,57.93
2022-08-07T00:33:59.529Z,58.43
2022-08-07T00:37:02.881Z,58.22
2022-08-07T00:40:08.383Z,58.56
2022-08-07T00:43:59.208Z,58.48
2022-08-07T00:46:39.584Z,58.28
2022-08-07T00:50:21.486Z,58.66
2022-08-07T00:53:05.902Z,58.43
2022-08-07T00:56:15.491Z,58.37
2022-08-07T00:59:20.118Z,58.31
2022-08-07T01:02:35.667Z,58.18
2022-08-07T01:05:42.963Z,57.93
2022-08-07T01:08:59.354Z,58.00
2022-08-07T01:12:23.577Z,57.80
2022-08-07T01:15:35.996Z,57.77
2022-08-07T01:18:50.106Z,58.08
2022-08-07T01:21:55.430Z,57.73
2022-08-07T01:24:59.827Z,57.70
2022-08-07T01:28:03.757Z,57.91
2022-08-07T01:31:07.052Z,57.96
2022-08-07T01:34:12.117Z,57.90
2022-08-07T01:37:17.483Z,57.96
2022-08-07T01:40:23.435Z,57.82
2022-08-07T01:43:34.583Z,57.99
2022-08-07T01:46:42.108Z,58.09
2022-08-07T01:49:45.195Z,58.07
2022-08-07T01:52:54.410Z,58.25
2022-08-07T01:56:03.045Z,58.48
2022-08-07T01:59:19.625Z,58.58
2022-08-07T02:02:32.737Z,58.57
2022-08-07T02:05:52.285Z,58.78
2022-08-07T02:09:05.406Z,58.98
2022-08-07T02:12:18.643Z,59.23
2022-08-07T02:15:23.689Z,59.53
2022-08-07T02:18:31.888Z,59.44
2022-08-07T02:21:56.773Z,59.49
2022-08-07T02:25:00.915Z,60.08
2022-08-07T02:28:04.650Z,60.22
2022-08-07T02:31:28.675Z,60.33
2022-08-07T02:34:33.336Z,60.68
2022-08-07T02:37:44.071Z,60.98
2022-08-07T02:40:50.439Z,61.07
2022-08-07T02:43:56.856Z,61.34
2022-08-07T02:47:00.912Z,61.46
2022-08-07T02:50:06.393Z,61.76
2022-08-07T02:53:15.722Z,61.92
2022-08-07T02:56:21.918Z,61.91
2022-08-07T02:59:27.676Z,62.52
2022-08-07T03:02:31.977Z,63.56
2022-08-07T03:05:37.224Z,69.21
2022-08-07T03:08:40.877Z,75.50
2022-08-07T03:11:52.227Z,76.47
2022-08-07T03:15:02.462Z,78.94
2022-08-07T03:18:11.997Z,75.63
2022-08-07T03:21:24.482Z,75.96
2022-08-07T03:24:28.656Z,77.35
2022-08-07T03:27:58.751Z,75.91
2022-08-07T03:31:15.600Z,75.70
2022-08-07T03:34:22.028Z,76.89
2022-08-07T03:37:27.605Z,77.73
2022-08-07T03:40:36.462Z,75.16
2022-08-07T03:43:40.441Z,73.51
2022-08-07T03:47:13.539Z,74.03
2022-08-07T03:50:23.348Z,74.20
2022-08-07T03:54:01.782Z,73.08
2022-08-07T03:57:03.370Z,72.79
2022-08-07T04:00:08.472Z,72.78
2022-08-07T04:03:17.994Z,75.10
2022-08-07T04:06:37.349Z,76.33
2022-08-07T04:09:44.615Z,76.91
2022-08-07T04:12:50.389Z,77.60
2022-08-07T04:15:53.285Z,76.84
2022-08-07T04:19:01.302Z,76.39
2022-08-07T04:22:12.194Z,75.08
2022-08-07T04:25:20.005Z,76.24
2022-08-07T04:28:27.070Z,75.38
2022-08-07T04:32:02.118Z,75.38
2022-08-07T04:34:55.229Z,74.34
2022-08-07T04:38:03.398Z,73.92
2022-08-07T04:41:18.259Z,73.16
2022-08-07T04:44:23.769Z,71.93
2022-08-07T04:47:57.222Z,72.69
2022-08-07T04:51:27.579Z,72.71
2022-08-07T04:54:58.110Z,71.68
2022-08-07T04:58:33.773Z,70.59
2022-08-07T05:01:47.544Z,70.11
2022-08-07T05:05:02.181Z,68.87
2022-08-07T05:08:59.225Z,68.89
2022-08-07T05:11:57.604Z,68.08
2022-08-07T05:15:23.575Z,67.46
2022-08-07T05:18:30.103Z,67.46
2022-08-07T05:22:00.444Z,66.89
2022-08-07T05:25:00.766Z,66.57
2022-08-07T05:28:20.655Z,65.80
2022-08-07T05:31:35.001Z,64.87
2022-08-07T05:34:40.565Z,65.75
2022-08-07T05:37:45.307Z,65.28
2022-08-07T05:40:51.432Z,65.28
2022-08-07T05:44:09.004Z,64.92
2022-08-07T05:47:20.022Z,63.34
2022-08-07T05:50:24.367Z,62.17
2022-08-07T05:54:12.274Z,61.76
2022-08-07T05:56:51.701Z,61.56
2022-08-07T05:59:57.790Z,60.18
2022-08-07T06:03:02.044Z,59.94
2022-08-07T06:06:09.433Z,59.45
2022-08-07T06:09:12.703Z,58.18
2022-08-07T06:12:16.535Z,58.25
2022-08-07T06:15:39.496Z,57.38
2022-08-07T06:18:51.890Z,55.67
2022-08-07T06:22:16.585Z,54.23
2022-08-07T06:25:24.438Z,54.84
2022-08-07T06:28:29.607Z,54.14
2022-08-07T06:31:38.846Z,53.66
2022-08-07T06:34:53.262Z,53.26
2022-08-07T06:37:58.230Z,52.46
2022-08-07T06:41:06.836Z,52.55
2022-08-07T06:44:12.106Z,52.79
2022-08-07T06:47:15.782Z,51.73
2022-08-07T06:50:19.347Z,51.17
2022-08-07T06:55:28.261Z,51.53
2022-08-07T06:56:50.690Z,51.27
2022-08-07T07:00:11.600Z,51.05
2022-08-07T07:03:40.106Z,50.84
2022-08-07T07:07:00.474Z,49.10
2022-08-07T07:10:04.987Z,47.06
2022-08-07T07:13:15.288Z,46.91
2022-08-07T07:16:21.006Z,46.40
2022-08-07T07:19:55.406Z,45.13
2022-08-07T07:24:06.342Z,43.08
2022-08-07T07:26:32.024Z,43.13
2022-08-07T07:30:08.881Z,43.82
2022-08-07T07:33:05.115Z,44.94
2022-08-07T07:36:12.720Z,44.11
2022-08-07T07:39:16.995Z,45.29
2022-08-07T07:42:25.694Z,45.39
2022-08-07T07:46:37.921Z,45.09
2022-08-07T07:48:59.923Z,45.80
2022-08-07T07:52:13.338Z,44.33
2022-08-07T07:55:19.782Z,46.00
2022-08-07T07:58:22.853Z,46.50
2022-08-07T08:02:03.465Z,44.82
2022-08-07T08:04:56.286Z,44.23
2022-08-07T08:08:02.214Z,44.25
2022-08-07T08:11:08.520Z,44.35
2022-08-07T08:14:11.782Z,44.67
2022-08-07T08:17:55.448Z,44.68
2022-08-07T08:20:39.255Z,44.47
2022-08-07T08:24:05.138Z,43.83
2022-08-07T08:27:09.922Z,44.62
2022-08-07T08:30:23.437Z,44.73
2022-08-07T08:33:32.936Z,46.12
2022-08-07T08:36:37.301Z,44.53
2022-08-07T08:39:54.910Z,44.98
2022-08-07T08:43:20.242Z,45.50
2022-08-07T08:46:38.128Z,44.92
2022-08-07T08:50:07.756Z,44.03
2022-08-07T08:53:30.228Z,43.75
2022-08-07T08:56:39.185Z,42.36
2022-08-07T08:59:54.590Z,41.64
2022-08-07T09:03:03.911Z,40.38
2022-08-07T09:06:36.917Z,40.02
2022-08-07T09:09:56.706Z,39.32
2022-08-07T09:13:37.771Z,37.84
2022-08-07T09:16:47.656Z,37.26
2022-08-07T09:20:00.666Z,36.05
2022-08-07T09:24:33.628Z,35.38
2022-08-07T09:26:57.333Z,34.45
2022-08-07T09:30:09.247Z,33.69
2022-08-07T09:33:40.982Z,33.92
2022-08-07T09:37:06.526Z,33.15
2022-08-07T09:40:17.922Z,34.21
2022-08-07T09:44:03.648Z,34.61
2022-08-07T09:48:00.341Z,34.10
2022-08-07T09:51:05.416Z,34.29
2022-08-07T09:54:37.679Z,33.94
2022-08-07T09:57:56.290Z,34.11
2022-08-07T10:01:15.035Z,34.21
2022-08-07T10:05:12.723Z,34.22
2022-08-07T10:08:26.713Z,34.80
2022-08-07T10:12:02.249Z,33.80
2022-08-07T10:15:46.091Z,34.48
2022-08-07T10:19:18.999Z,34.05
2022-08-07T10:22:43.136Z,33.68
2022-08-07T10:25:53.890Z,33.54
2022-08-07T10:29:23.588Z,34.75
2022-08-07T10:32:52.342Z,35.40
2022-08-07T10:36:11.398Z,34.89
2022-08-07T10:39:41.239Z,36.47
2022-08-07T10:42:53.890Z,35.44
2022-08-07T10:46:00.592Z,35.75
2022-08-07T10:49:10.305Z,36.94
2022-08-07T10:52:21.372Z,37.09
2022-08-07T10:55:53.295Z,35.92
2022-08-07T10:59:30.342Z,35.87
2022-08-07T11:02:35.208Z,36.53
2022-08-07T11:05:51.148Z,36.07
2022-08-07T11:10:07.502Z,35.58
2022-08-07T11:12:49.217Z,36.08
2022-08-07T11:15:54.826Z,35.36
2022-08-07T11:19:03.794Z,35.60
2022-08-07T11:22:26.657Z,36.58
2022-08-07T11:25:51.623Z,36.23
2022-08-07T11:29:13.154Z,36.45
2022-08-07T11:32:50.487Z,36.94
2022-08-07T11:36:13.872Z,35.02
2022-08-07T11:39:24.223Z,33.99
2022-08-07T11:42:35.216Z,32.57
2022-08-07T11:46:26.127Z,32.08
2022-08-07T11:50:25.373Z,31.68
2022-08-07T11:53:35.318Z,32.51
2022-08-07T11:57:06.073Z,30.80
2022-08-07T12:00:27.601Z,30.33
2022-08-07T12:03:54.445Z,31.10
2022-08-07T12:07:09.101Z,31.55
2022-08-07T12:10:35.797Z,32.16
2022-08-07T12:13:51.031Z,32.09
2022-08-07T12:17:01.997Z,32.04
2022-08-07T12:20:29.691Z,32.60
2022-08-07T12:24:06.677Z,32.59
2022-08-07T12:27:16.135Z,32.22
2022-08-07T12:30:23.476Z,32.73
2022-08-07T12:33:30.931Z,31.99
2022-08-07T12:36:52.952Z,30.90
2022-08-07T12:39:58.718Z,31.48
2022-08-07T12:43:09.200Z,31.13
2022-08-07T12:46:32.376Z,29.93
2022-08-07T12:49:51.210Z,30.43
2022-08-07T12:53:17.384Z,29.98
2022-08-07T12:56:26.546Z,30.67
2022-08-07T12:59:33.102Z,31.03
2022-08-07T13:03:06.723Z,29.74
2022-08-07T13:06:54.281Z,29.68
2022-08-07T13:10:52.279Z,30.04
2022-08-07T13:14:00.885Z,28.70
2022-08-07T13:17:12.158Z,28.94
2022-08-07T13:20:29.062Z,28.97
2022-08-07T13:24:01.441Z,28.84
2022-08-07T13:27:20.555Z,28.39
2022-08-07T13:30:41.246Z,28.75
2022-08-07T13:34:32.872Z,29.01
2022-08-07T13:38:00.907Z,28.34
2022-08-07T13:41:30.245Z,28.80
2022-08-07T13:44:37.379Z,28.98
2022-08-07T13:48:05.389Z,28.53
2022-08-07T13:51:27.102Z,28.50
2022-08-07T13:54:33.483Z,27.62
2022-08-07T13:57:40.065Z,28.31
2022-08-07T14:01:20.398Z,27.63
2022-08-07T14:04:29.914Z,28.60
2022-08-07T14:08:00.960Z,29.14
2022-08-07T14:11:17.646Z,28.35
2022-08-07T14:14:28.387Z,29.01
2022-08-07T14:18:15.859Z,28.82
2022-08-07T14:21:20.945Z,29.04
2022-08-07T14:24:41.808Z,29.63
2022-08-07T14:28:10.918Z,29.98
2022-08-07T14:31:14.639Z,29.64
2022-08-07T14:34:27.271Z,29.58
2022-08-07T14:37:38.797Z,29.53
2022-08-07T14:40:43.095Z,30.07
2022-08-07T14:47:17.256Z,30.77
2022-08-07T14:50:24.546Z,30.85
2022-08-07T14:54:03.801Z,30.65
2022-08-07T14:56:55.049Z,31.07
2022-08-07T15:00:05.092Z,31.35
2022-08-07T15:03:16.583Z,31.71
2022-08-07T15:06:28.070Z,31.77
2022-08-07T15:09:57.515Z,32.87
2022-08-07T15:12:58.777Z,32.91
2022-08-07T15:16:11.071Z,33.23
2022-08-07T15:19:19.322Z,33.98
2022-08-07T15:22:54.137Z,33.73
2022-08-07T15:25:58.063Z,34.11
2022-08-07T15:32:39.953Z,34.63
2022-08-07T15:39:19.958Z,35.28
2022-08-07T15:42:47.758Z,35.32
2022-08-07T15:45:55.958Z,35.22
2022-08-07T15:49:13.098Z,35.35
2022-08-07T15:52:30.367Z,35.76
2022-08-07T15:55:53.487Z,35.91
2022-08-07T15:59:04.585Z,36.76
2022-08-07T16:02:10.278Z,36.38
2022-08-07T16:05:20.391Z,35.43
2022-08-07T16:08:31.647Z,36.16
2022-08-07T16:12:28.764Z,35.99
2022-08-07T16:15:55.443Z,35.27
2022-08-07T16:19:03.371Z,36.41
2022-08-07T16:22:37.626Z,37.10
2022-08-07T16:26:14.636Z,37.94
2022-08-07T16:30:10.316Z,38.21
2022-08-07T16:34:02.073Z,38.57
2022-08-07T16:38:04.036Z,38.85
2022-08-07T16:41:02.251Z,38.71
2022-08-07T16:45:14.779Z,39.07
2022-08-07T16:48:28.505Z,39.18
2022-08-07T16:51:54.076Z,38.40
2022-08-07T16:55:24.101Z,38.94
2022-08-07T16:59:14.125Z,38.85
2022-08-07T17:02:51.685Z,38.63
2022-08-07T17:06:30.370Z,38.37
2022-08-07T17:10:05.965Z,38.33
2022-08-07T17:13:22.699Z,38.64
2022-08-07T17:16:29.378Z,38.55
2022-08-07T17:20:01.060Z,39.07
2022-08-07T17:23:03.842Z,38.82
2022-08-07T17:26:24.249Z,39.73
2022-08-07T17:30:15.524Z,39.54
2022-08-07T17:34:08.366Z,39.96
2022-08-07T17:37:09.093Z,39.96
2022-08-07T17:40:30.469Z,39.93
2022-08-07T17:44:01.636Z,39.69
2022-08-07T17:47:38.687Z,38.88
2022-08-07T17:50:47.203Z,38.85
2022-08-07T17:54:14.351Z,38.28
2022-08-07T17:57:58.364Z,38.25
2022-08-07T18:01:21.469Z,38.11
2022-08-07T18:04:34.715Z,36.77
2022-08-07T18:07:43.823Z,36.34
2022-08-07T18:12:06.213Z,35.62
2022-08-07T18:14:37.357Z,36.33
2022-08-07T18:18:45.765Z,35.72
2022-08-07T18:21:51.875Z,35.73
2022-08-07T18:25:01.634Z,36.49
2022-08-07T18:28:34.481Z,35.92
2022-08-07T18:31:50.363Z,35.93
2022-08-07T18:35:10.489Z,36.16
2022-08-07T18:38:58.644Z,36.36
2022-08-07T18:41:58.781Z,36.58
2022-08-07T18:45:42.762Z,37.06
2022-08-07T18:50:30.173Z,37.13
2022-08-07T18:52:41.027Z,36.98
2022-08-07T18:55:57.299Z,37.12
2022-08-07T18:59:48.084Z,37.24
2022-08-07T19:03:18.199Z,36.90
2022-08-07T19:06:49.391Z,37.05
2022-08-07T19:10:03.697Z,37.34
2022-08-07T19:13:12.008Z,37.35
2022-08-07T19:17:08.019Z,37.39
2022-08-07T19:20:28.904Z,38.06
2022-08-07T19:23:59.424Z,38.04
2022-08-07T19:28:30.701Z,38.33
2022-08-07T19:31:00.623Z,38.52
2022-08-07T19:34:00.590Z,38.38
2022-08-07T19:37:16.857Z,38.79
2022-08-07T19:40:31.022Z,38.62
2022-08-07T19:43:43.661Z,39.16
2022-08-07T19:46:57.834Z,38.83
2022-08-07T19:50:44.241Z,39.43
2022-08-07T19:54:34.051Z,39.46
2022-08-07T19:58:02.925Z,39.61
2022-08-07T20:00:29.155Z,39.63
2022-08-07T20:03:36.539Z,39.72
2022-08-07T20:06:43.067Z,39.56
2022-08-07T20:10:34.130Z,39.57
2022-08-07T20:13:23.959Z,39.77
2022-08-07T20:16:36.417Z,39.85
2022-08-07T20:19:47.561Z,40.16
2022-08-07T20:22:57.196Z,40.24
2022-08-07T20:26:10.056Z,40.28
2022-08-07T20:29:46.808Z,40.34
2022-08-07T20:32:43.551Z,40.62
2022-08-07T20:35:54.429Z,40.57
2022-08-07T20:40:01.168Z,41.03
2022-08-07T20:42:30.327Z,41.13
2022-08-07T20:46:27.012Z,41.12
2022-08-07T20:49:59.476Z,41.11
2022-08-07T20:52:30.065Z,41.77
2022-08-07T20:55:48.772Z,41.85
2022-08-07T20:58:59.105Z,42.17
2022-08-07T21:02:04.419Z,42.19
2022-08-07T21:05:43.062Z,42.54
2022-08-07T21:09:01.855Z,42.33
2022-08-07T21:12:05.951Z,42.63
2022-08-07T21:15:19.131Z,42.78
2022-08-07T21:18:28.087Z,42.89
2022-08-07T21:21:57.076Z,43.30
2022-08-07T21:25:29.146Z,43.51
2022-08-07T21:29:15.632Z,43.43
2022-08-07T21:32:48.611Z,43.71
2022-08-07T21:36:05.376Z,44.03
2022-08-07T21:39:45.456Z,44.08
2022-08-07T21:42:49.137Z,44.01
2022-08-07T21:46:25.277Z,44.15
2022-08-07T21:50:01.912Z,44.31
2022-08-07T21:53:12.912Z,44.60
2022-08-07T21:56:52.002Z,44.83
2022-08-07T22:00:22.213Z,45.01
2022-08-07T22:03:36.441Z,44.87
2022-08-07T22:06:50.260Z,44.67
2022-08-07T22:09:57.307Z,44.82
2022-08-07T22:13:09.381Z,44.87
2022-08-07T22:16:42.880Z,45.18
2022-08-07T22:19:57.348Z,45.18
2022-08-07T22:23:30.767Z,45.65
2022-08-07T22:26:45.455Z,46.26
2022-08-07T22:30:05.260Z,46.61
2022-08-07T22:33:17.895Z,47.04
2022-08-07T22:36:59.630Z,47.11
2022-08-07T22:40:11.810Z,47.78
2022-08-07T22:43:18.207Z,48.06
2022-08-07T22:47:03.688Z,48.45
2022-08-07T22:50:09.714Z,48.55
2022-08-07T22:54:07.356Z,48.80
2022-08-07T22:57:17.097Z,48.80
2022-08-07T23:00:32.440Z,49.06
2022-08-07T23:03:58.381Z,49.55
2022-08-07T23:07:41.874Z,49.57
2022-08-07T23:11:16.222Z,49.73
2022-08-07T23:14:37.037Z,49.71
2022-08-07T23:18:19.357Z,49.86
2022-08-07T23:21:29.876Z,50.12
2022-08-07T23:25:02.172Z,50.10
2022-08-07T23:28:22.209Z,50.21
2022-08-07T23:34:21.642Z,50.27
2022-08-07T23:35:23.838Z,50.42
2022-08-07T23:38:47.206Z,50.51
2022-08-07T23:42:06.312Z,50.46
2022-08-07T23:46:03.230Z,50.83
2022-08-07T23:49:18.659Z,50.76
2022-08-07T23:52:58.787Z,50.35
2022-08-07T23:56:20.869Z,50.94
